sensor_id;sensor_type;location;lat;lon;timestamp;P1;durP1;ratioP1;P2;durP2;ratioP2
15958;SDS011;8078;47.822;9.402;2023-06-14T00:01:44;4.80;;;3.58;;
15958;SDS011;8078;47.822;9.402;2023-06-14T00:04:11;5.18;;;3.33;;
15958;SDS011;8078;47.822;9.402;2023-06-14T00:06:37;5.05;;;3.63;;
15958;SDS011;8078;47.822;9.402;2023-06-14T00:09:03;4.55;;;3.60;;
15958;SDS011;8078;47.822;9.402;2023-06-14T00:11:29;5.75;;;3.50;;
15958;SDS011;8078;47.822;9.402;2023-06-14T00:13:58;6.20;;;3.58;;
15958;SDS011;8078;47.822;9.402;2023-06-14T00:16:23;4.30;;;3.90;;
15958;SDS011;8078;47.822;9.402;2023-06-14T00:18:49;6.68;;;4.00;;
15958;SDS011;8078;47.822;9.402;2023-06-14T00:21:16;6.78;;;3.78;;
15958;SDS011;8078;47.822;9.402;2023-06-14T00:23:42;6.22;;;3.47;;
15958;SDS011;8078;47.822;9.402;2023-06-14T00:26:08;7.57;;;3.85;;
15958;SDS011;8078;47.822;9.402;2023-06-14T00:28:33;5.22;;;3.80;;
15958;SDS011;8078;47.822;9.402;2023-06-14T00:30:59;4.63;;;3.63;;
15958;SDS011;8078;47.822;9.402;2023-06-14T00:33:24;5.60;;;3.50;;
15958;SDS011;8078;47.822;9.402;2023-06-14T00:35:50;4.65;;;3.65;;
15958;SDS011;8078;47.822;9.402;2023-06-14T00:38:18;4.63;;;3.55;;
15958;SDS011;8078;47.822;9.402;2023-06-14T00:40:44;5.22;;;3.72;;
15958;SDS011;8078;47.822;9.402;2023-06-14T00:43:10;6.63;;;3.92;;
15958;SDS011;8078;47.822;9.402;2023-06-14T00:45:35;6.88;;;3.80;;
15958;SDS011;8078;47.822;9.402;2023-06-14T00:48:01;4.93;;;3.63;;
15958;SDS011;8078;47.822;9.402;2023-06-14T00:50:27;8.18;;;3.65;;
15958;SDS011;8078;47.822;9.402;2023-06-14T00:52:54;3.90;;;3.45;;
15958;SDS011;8078;47.822;9.402;2023-06-14T00:55:21;4.78;;;3.63;;
15958;SDS011;8078;47.822;9.402;2023-06-14T00:57:46;5.72;;;3.45;;
15958;SDS011;8078;47.822;9.402;2023-06-14T01:00:13;8.40;;;3.60;;
15958;SDS011;8078;47.822;9.402;2023-06-14T01:02:39;3.42;;;3.13;;
15958;SDS011;8078;47.822;9.402;2023-06-14T01:05:05;4.68;;;3.67;;
15958;SDS011;8078;47.822;9.402;2023-06-14T01:13:15;5.47;;;3.50;;
15958;SDS011;8078;47.822;9.402;2023-06-14T01:15:44;4.07;;;3.55;;
15958;SDS011;8078;47.822;9.402;2023-06-14T01:18:14;3.75;;;3.35;;
15958;SDS011;8078;47.822;9.402;2023-06-14T01:20:42;4.60;;;3.80;;
15958;SDS011;8078;47.822;9.402;2023-06-14T01:23:10;4.25;;;3.60;;
15958;SDS011;8078;47.822;9.402;2023-06-14T01:25:37;5.07;;;3.65;;
15958;SDS011;8078;47.822;9.402;2023-06-14T01:28:04;4.15;;;3.38;;
15958;SDS011;8078;47.822;9.402;2023-06-14T01:30:36;5.38;;;3.67;;
15958;SDS011;8078;47.822;9.402;2023-06-14T01:33:03;5.10;;;3.95;;
15958;SDS011;8078;47.822;9.402;2023-06-14T01:35:30;5.25;;;3.50;;
15958;SDS011;8078;47.822;9.402;2023-06-14T01:37:56;5.00;;;3.88;;
15958;SDS011;8078;47.822;9.402;2023-06-14T01:40:24;6.07;;;3.45;;
15958;SDS011;8078;47.822;9.402;2023-06-14T01:42:50;6.13;;;3.75;;
15958;SDS011;8078;47.822;9.402;2023-06-14T01:45:17;3.67;;;3.38;;
15958;SDS011;8078;47.822;9.402;2023-06-14T01:47:44;9.13;;;3.78;;
15958;SDS011;8078;47.822;9.402;2023-06-14T01:50:11;5.28;;;3.63;;
15958;SDS011;8078;47.822;9.402;2023-06-14T01:52:37;5.57;;;3.65;;
15958;SDS011;8078;47.822;9.402;2023-06-14T01:55:06;6.82;;;3.67;;
15958;SDS011;8078;47.822;9.402;2023-06-14T01:57:33;5.25;;;3.53;;
15958;SDS011;8078;47.822;9.402;2023-06-14T01:59:58;4.68;;;3.60;;
15958;SDS011;8078;47.822;9.402;2023-06-14T02:02:24;6.28;;;3.58;;
15958;SDS011;8078;47.822;9.402;2023-06-14T02:04:50;4.03;;;3.63;;
15958;SDS011;8078;47.822;9.402;2023-06-14T02:07:15;4.35;;;3.67;;
15958;SDS011;8078;47.822;9.402;2023-06-14T02:09:41;4.15;;;3.67;;
15958;SDS011;8078;47.822;9.402;2023-06-14T02:12:07;6.63;;;3.63;;
15958;SDS011;8078;47.822;9.402;2023-06-14T02:14:33;4.38;;;3.58;;
15958;SDS011;8078;47.822;9.402;2023-06-14T02:16:59;5.95;;;3.22;;
15958;SDS011;8078;47.822;9.402;2023-06-14T02:19:26;4.22;;;3.58;;
15958;SDS011;8078;47.822;9.402;2023-06-14T02:21:51;6.10;;;3.45;;
15958;SDS011;8078;47.822;9.402;2023-06-14T02:24:17;5.97;;;3.97;;
15958;SDS011;8078;47.822;9.402;2023-06-14T02:26:43;6.30;;;3.80;;
15958;SDS011;8078;47.822;9.402;2023-06-14T02:29:08;4.97;;;3.70;;
15958;SDS011;8078;47.822;9.402;2023-06-14T02:31:37;9.63;;;3.72;;
15958;SDS011;8078;47.822;9.402;2023-06-14T02:34:03;6.32;;;3.70;;
15958;SDS011;8078;47.822;9.402;2023-06-14T02:36:28;6.03;;;3.80;;
15958;SDS011;8078;47.822;9.402;2023-06-14T02:38:57;4.82;;;4.10;;
15958;SDS011;8078;47.822;9.402;2023-06-14T02:41:26;5.28;;;4.13;;
15958;SDS011;8078;47.822;9.402;2023-06-14T02:43:51;4.72;;;4.20;;
15958;SDS011;8078;47.822;9.402;2023-06-14T02:46:21;7.70;;;3.75;;
15958;SDS011;8078;47.822;9.402;2023-06-14T02:48:46;10.20;;;4.57;;
15958;SDS011;8078;47.822;9.402;2023-06-14T02:51:12;6.57;;;4.35;;
15958;SDS011;8078;47.822;9.402;2023-06-14T02:53:38;6.30;;;4.13;;
15958;SDS011;8078;47.822;9.402;2023-06-14T02:56:03;7.70;;;4.53;;
15958;SDS011;8078;47.822;9.402;2023-06-14T02:58:29;6.18;;;4.25;;
15958;SDS011;8078;47.822;9.402;2023-06-14T03:00:55;6.63;;;3.70;;
15958;SDS011;8078;47.822;9.402;2023-06-14T03:03:21;5.80;;;3.92;;
15958;SDS011;8078;47.822;9.402;2023-06-14T03:05:49;5.00;;;3.53;;
15958;SDS011;8078;47.822;9.402;2023-06-14T03:08:16;6.70;;;4.07;;
15958;SDS011;8078;47.822;9.402;2023-06-14T03:10:44;6.20;;;4.10;;
15958;SDS011;8078;47.822;9.402;2023-06-14T03:13:11;8.65;;;4.30;;
15958;SDS011;8078;47.822;9.402;2023-06-14T03:15:37;5.17;;;4.37;;
15958;SDS011;8078;47.822;9.402;2023-06-14T03:18:03;4.85;;;3.92;;
15958;SDS011;8078;47.822;9.402;2023-06-14T03:20:29;4.82;;;4.00;;
15958;SDS011;8078;47.822;9.402;2023-06-14T03:22:59;5.72;;;4.35;;
15958;SDS011;8078;47.822;9.402;2023-06-14T03:25:25;5.57;;;4.05;;
15958;SDS011;8078;47.822;9.402;2023-06-14T03:27:54;4.97;;;4.05;;
15958;SDS011;8078;47.822;9.402;2023-06-14T03:30:20;5.47;;;3.85;;
15958;SDS011;8078;47.822;9.402;2023-06-14T03:32:46;11.50;;;5.00;;
15958;SDS011;8078;47.822;9.402;2023-06-14T03:35:11;6.00;;;4.32;;
15958;SDS011;8078;47.822;9.402;2023-06-14T03:37:42;5.05;;;4.00;;
15958;SDS011;8078;47.822;9.402;2023-06-14T03:40:12;6.60;;;4.00;;
15958;SDS011;8078;47.822;9.402;2023-06-14T03:42:39;5.80;;;4.32;;
15958;SDS011;8078;47.822;9.402;2023-06-14T03:45:05;9.45;;;4.50;;
15958;SDS011;8078;47.822;9.402;2023-06-14T03:47:33;5.88;;;4.43;;
15958;SDS011;8078;47.822;9.402;2023-06-14T03:49:59;6.20;;;4.20;;
15958;SDS011;8078;47.822;9.402;2023-06-14T03:52:26;5.82;;;4.50;;
15958;SDS011;8078;47.822;9.402;2023-06-14T03:54:52;7.45;;;4.43;;
15958;SDS011;8078;47.822;9.402;2023-06-14T03:57:18;5.53;;;4.22;;
15958;SDS011;8078;47.822;9.402;2023-06-14T03:59:44;5.17;;;4.67;;
15958;SDS011;8078;47.822;9.402;2023-06-14T04:02:09;5.75;;;4.90;;
15958;SDS011;8078;47.822;9.402;2023-06-14T04:04:35;4.88;;;4.20;;
15958;SDS011;8078;47.822;9.402;2023-06-14T04:07:01;4.60;;;4.10;;
15958;SDS011;8078;47.822;9.402;2023-06-14T04:09:28;5.40;;;4.47;;
15958;SDS011;8078;47.822;9.402;2023-06-14T04:11:55;5.72;;;4.28;;
15958;SDS011;8078;47.822;9.402;2023-06-14T04:14:20;5.60;;;4.35;;
15958;SDS011;8078;47.822;9.402;2023-06-14T04:16:47;7.53;;;4.30;;
15958;SDS011;8078;47.822;9.402;2023-06-14T04:19:13;6.22;;;4.00;;
15958;SDS011;8078;47.822;9.402;2023-06-14T04:21:39;7.35;;;4.63;;
15958;SDS011;8078;47.822;9.402;2023-06-14T04:24:05;4.63;;;4.10;;
15958;SDS011;8078;47.822;9.402;2023-06-14T04:26:32;20.42;;;4.97;;
15958;SDS011;8078;47.822;9.402;2023-06-14T04:29:02;28.15;;;5.65;;
15958;SDS011;8078;47.822;9.402;2023-06-14T04:31:30;6.35;;;4.20;;
15958;SDS011;8078;47.822;9.402;2023-06-14T04:33:59;6.00;;;4.13;;
15958;SDS011;8078;47.822;9.402;2023-06-14T04:36:25;4.93;;;4.20;;
15958;SDS011;8078;47.822;9.402;2023-06-14T04:38:52;6.82;;;4.32;;
15958;SDS011;8078;47.822;9.402;2023-06-14T04:41:22;5.45;;;4.20;;
15958;SDS011;8078;47.822;9.402;2023-06-14T04:43:49;5.00;;;3.92;;
15958;SDS011;8078;47.822;9.402;2023-06-14T04:46:15;5.88;;;4.88;;
15958;SDS011;8078;47.822;9.402;2023-06-14T04:48:42;5.28;;;4.35;;
15958;SDS011;8078;47.822;9.402;2023-06-14T04:51:11;6.47;;;4.22;;
15958;SDS011;8078;47.822;9.402;2023-06-14T04:53:38;6.63;;;4.20;;
15958;SDS011;8078;47.822;9.402;2023-06-14T04:56:03;4.63;;;3.88;;
15958;SDS011;8078;47.822;9.402;2023-06-14T04:58:29;6.22;;;4.35;;
15958;SDS011;8078;47.822;9.402;2023-06-14T05:00:55;5.25;;;3.55;;
15958;SDS011;8078;47.822;9.402;2023-06-14T05:03:24;6.55;;;4.20;;
15958;SDS011;8078;47.822;9.402;2023-06-14T05:05:50;8.10;;;4.22;;
15958;SDS011;8078;47.822;9.402;2023-06-14T05:08:18;7.15;;;4.05;;
15958;SDS011;8078;47.822;9.402;2023-06-14T05:10:43;8.13;;;4.28;;
15958;SDS011;8078;47.822;9.402;2023-06-14T05:13:09;7.53;;;4.55;;
15958;SDS011;8078;47.822;9.402;2023-06-14T05:15:35;4.68;;;4.03;;
15958;SDS011;8078;47.822;9.402;2023-06-14T05:18:01;6.00;;;4.05;;
15958;SDS011;8078;47.822;9.402;2023-06-14T05:20:27;6.10;;;4.30;;
15958;SDS011;8078;47.822;9.402;2023-06-14T05:22:53;5.82;;;3.90;;
15958;SDS011;8078;47.822;9.402;2023-06-14T05:25:20;4.70;;;3.92;;
15958;SDS011;8078;47.822;9.402;2023-06-14T05:27:46;6.53;;;4.25;;
15958;SDS011;8078;47.822;9.402;2023-06-14T05:30:12;6.68;;;4.18;;
15958;SDS011;8078;47.822;9.402;2023-06-14T05:32:39;4.60;;;3.92;;
15958;SDS011;8078;47.822;9.402;2023-06-14T05:35:05;8.55;;;4.22;;
15958;SDS011;8078;47.822;9.402;2023-06-14T05:37:31;5.90;;;3.60;;
15958;SDS011;8078;47.822;9.402;2023-06-14T05:39:57;6.13;;;4.10;;
15958;SDS011;8078;47.822;9.402;2023-06-14T05:42:22;6.38;;;4.00;;
15958;SDS011;8078;47.822;9.402;2023-06-14T05:44:48;7.75;;;4.07;;
15958;SDS011;8078;47.822;9.402;2023-06-14T05:47:13;7.07;;;3.72;;
15958;SDS011;8078;47.822;9.402;2023-06-14T05:49:39;6.88;;;3.88;;
15958;SDS011;8078;47.822;9.402;2023-06-14T05:52:05;4.10;;;3.70;;
15958;SDS011;8078;47.822;9.402;2023-06-14T05:54:31;5.57;;;3.78;;
15958;SDS011;8078;47.822;9.402;2023-06-14T05:56:56;5.88;;;3.63;;
15958;SDS011;8078;47.822;9.402;2023-06-14T05:59:26;6.25;;;3.75;;
15958;SDS011;8078;47.822;9.402;2023-06-14T06:01:52;7.78;;;3.80;;
15958;SDS011;8078;47.822;9.402;2023-06-14T06:04:18;8.68;;;3.90;;
15958;SDS011;8078;47.822;9.402;2023-06-14T06:06:44;4.78;;;3.88;;
15958;SDS011;8078;47.822;9.402;2023-06-14T06:09:10;6.55;;;4.10;;
15958;SDS011;8078;47.822;9.402;2023-06-14T06:11:35;8.88;;;3.58;;
15958;SDS011;8078;47.822;9.402;2023-06-14T06:14:01;6.60;;;3.97;;
15958;SDS011;8078;47.822;9.402;2023-06-14T06:16:27;5.05;;;3.70;;
15958;SDS011;8078;47.822;9.402;2023-06-14T06:18:52;7.47;;;3.70;;
15958;SDS011;8078;47.822;9.402;2023-06-14T06:21:18;4.82;;;3.53;;
15958;SDS011;8078;47.822;9.402;2023-06-14T06:23:43;6.00;;;3.63;;
15958;SDS011;8078;47.822;9.402;2023-06-14T06:26:09;4.43;;;3.58;;
15958;SDS011;8078;47.822;9.402;2023-06-14T06:28:35;5.65;;;4.13;;
15958;SDS011;8078;47.822;9.402;2023-06-14T06:31:00;3.85;;;3.30;;
15958;SDS011;8078;47.822;9.402;2023-06-14T06:33:26;7.25;;;3.50;;
15958;SDS011;8078;47.822;9.402;2023-06-14T06:35:51;7.32;;;3.70;;
15958;SDS011;8078;47.822;9.402;2023-06-14T06:38:17;4.90;;;3.35;;
15958;SDS011;8078;47.822;9.402;2023-06-14T06:40:43;5.43;;;3.72;;
15958;SDS011;8078;47.822;9.402;2023-06-14T06:43:09;4.53;;;3.38;;
15958;SDS011;8078;47.822;9.402;2023-06-14T06:45:38;4.07;;;3.67;;
15958;SDS011;8078;47.822;9.402;2023-06-14T06:48:06;4.50;;;3.65;;
15958;SDS011;8078;47.822;9.402;2023-06-14T06:50:32;4.88;;;3.50;;
15958;SDS011;8078;47.822;9.402;2023-06-14T06:52:58;6.55;;;3.78;;
15958;SDS011;8078;47.822;9.402;2023-06-14T06:55:23;5.28;;;3.50;;
15958;SDS011;8078;47.822;9.402;2023-06-14T06:57:49;4.75;;;3.70;;
15958;SDS011;8078;47.822;9.402;2023-06-14T07:00:15;5.93;;;3.90;;
15958;SDS011;8078;47.822;9.402;2023-06-14T07:02:42;8.82;;;3.78;;
15958;SDS011;8078;47.822;9.402;2023-06-14T07:05:08;4.88;;;3.53;;
15958;SDS011;8078;47.822;9.402;2023-06-14T07:07:34;7.32;;;3.55;;
15958;SDS011;8078;47.822;9.402;2023-06-14T07:09:59;4.63;;;3.72;;
15958;SDS011;8078;47.822;9.402;2023-06-14T07:12:25;5.30;;;3.88;;
15958;SDS011;8078;47.822;9.402;2023-06-14T07:14:51;5.90;;;3.80;;
15958;SDS011;8078;47.822;9.402;2023-06-14T07:17:16;6.65;;;3.58;;
15958;SDS011;8078;47.822;9.402;2023-06-14T07:19:42;4.95;;;3.13;;
15958;SDS011;8078;47.822;9.402;2023-06-14T07:22:08;4.88;;;3.65;;
15958;SDS011;8078;47.822;9.402;2023-06-14T07:24:33;5.72;;;3.75;;
15958;SDS011;8078;47.822;9.402;2023-06-14T07:27:01;5.22;;;3.22;;
15958;SDS011;8078;47.822;9.402;2023-06-14T07:29:28;6.90;;;3.28;;
15958;SDS011;8078;47.822;9.402;2023-06-14T07:31:53;5.97;;;3.20;;
15958;SDS011;8078;47.822;9.402;2023-06-14T07:34:19;4.28;;;2.78;;
15958;SDS011;8078;47.822;9.402;2023-06-14T07:36:44;6.85;;;3.20;;
15958;SDS011;8078;47.822;9.402;2023-06-14T07:39:11;6.00;;;3.08;;
15958;SDS011;8078;47.822;9.402;2023-06-14T07:41:36;5.30;;;3.13;;
15958;SDS011;8078;47.822;9.402;2023-06-14T07:44:02;7.55;;;3.22;;
15958;SDS011;8078;47.822;9.402;2023-06-14T07:46:28;4.10;;;3.15;;
15958;SDS011;8078;47.822;9.402;2023-06-14T07:48:53;5.75;;;3.55;;
15958;SDS011;8078;47.822;9.402;2023-06-14T07:51:19;5.97;;;2.90;;
15958;SDS011;8078;47.822;9.402;2023-06-14T07:53:45;6.60;;;3.08;;
15958;SDS011;8078;47.822;9.402;2023-06-14T07:56:11;3.80;;;2.63;;
15958;SDS011;8078;47.822;9.402;2023-06-14T07:58:37;4.95;;;3.10;;
15958;SDS011;8078;47.822;9.402;2023-06-14T08:01:02;6.82;;;3.20;;
15958;SDS011;8078;47.822;9.402;2023-06-14T08:03:31;4.47;;;3.33;;
15958;SDS011;8078;47.822;9.402;2023-06-14T08:05:57;4.55;;;2.80;;
15958;SDS011;8078;47.822;9.402;2023-06-14T08:08:25;5.05;;;2.70;;
15958;SDS011;8078;47.822;9.402;2023-06-14T08:10:51;4.20;;;3.15;;
15958;SDS011;8078;47.822;9.402;2023-06-14T08:13:17;7.35;;;3.25;;
15958;SDS011;8078;47.822;9.402;2023-06-14T08:15:42;4.65;;;3.22;;
15958;SDS011;8078;47.822;9.402;2023-06-14T08:18:09;7.18;;;3.30;;
15958;SDS011;8078;47.822;9.402;2023-06-14T08:20:35;7.38;;;3.28;;
15958;SDS011;8078;47.822;9.402;2023-06-14T08:23:02;3.28;;;2.97;;
15958;SDS011;8078;47.822;9.402;2023-06-14T08:25:29;7.43;;;3.60;;
15958;SDS011;8078;47.822;9.402;2023-06-14T08:27:55;6.95;;;3.10;;
15958;SDS011;8078;47.822;9.402;2023-06-14T08:30:21;4.45;;;3.30;;
15958;SDS011;8078;47.822;9.402;2023-06-14T08:32:47;9.27;;;3.22;;
15958;SDS011;8078;47.822;9.402;2023-06-14T08:35:12;4.05;;;3.13;;
15958;SDS011;8078;47.822;9.402;2023-06-14T08:37:39;6.00;;;3.25;;
15958;SDS011;8078;47.822;9.402;2023-06-14T08:40:30;5.70;;;3.30;;
15958;SDS011;8078;47.822;9.402;2023-06-14T08:42:55;3.58;;;2.80;;
15958;SDS011;8078;47.822;9.402;2023-06-14T08:45:21;6.85;;;3.00;;
15958;SDS011;8078;47.822;9.402;2023-06-14T08:47:48;3.47;;;2.95;;
15958;SDS011;8078;47.822;9.402;2023-06-14T08:50:26;3.08;;;2.53;;
15958;SDS011;8078;47.822;9.402;2023-06-14T08:52:54;3.67;;;2.58;;
15958;SDS011;8078;47.822;9.402;2023-06-14T08:55:25;6.53;;;2.95;;
15958;SDS011;8078;47.822;9.402;2023-06-14T08:57:53;4.88;;;3.00;;
15958;SDS011;8078;47.822;9.402;2023-06-14T09:00:19;6.40;;;3.45;;
15958;SDS011;8078;47.822;9.402;2023-06-14T09:02:46;5.95;;;2.80;;
15958;SDS011;8078;47.822;9.402;2023-06-14T09:05:12;3.72;;;3.00;;
15958;SDS011;8078;47.822;9.402;2023-06-14T09:07:41;5.63;;;2.78;;
15958;SDS011;8078;47.822;9.402;2023-06-14T09:10:16;5.22;;;3.10;;
15958;SDS011;8078;47.822;9.402;2023-06-14T09:12:42;6.10;;;2.95;;
15958;SDS011;8078;47.822;9.402;2023-06-14T09:15:08;2.80;;;2.60;;
15958;SDS011;8078;47.822;9.402;2023-06-14T09:17:35;5.72;;;3.22;;
15958;SDS011;8078;47.822;9.402;2023-06-14T09:20:05;5.13;;;2.80;;
15958;SDS011;8078;47.822;9.402;2023-06-14T09:22:32;4.55;;;3.13;;
15958;SDS011;8078;47.822;9.402;2023-06-14T09:24:58;4.15;;;3.15;;
15958;SDS011;8078;47.822;9.402;2023-06-14T09:27:27;6.82;;;2.60;;
15958;SDS011;8078;47.822;9.402;2023-06-14T09:29:54;5.35;;;3.05;;
15958;SDS011;8078;47.822;9.402;2023-06-14T09:32:20;5.45;;;2.88;;
15958;SDS011;8078;47.822;9.402;2023-06-14T09:34:46;5.50;;;2.80;;
15958;SDS011;8078;47.822;9.402;2023-06-14T09:37:12;6.30;;;3.33;;
15958;SDS011;8078;47.822;9.402;2023-06-14T09:39:50;7.15;;;3.47;;
15958;SDS011;8078;47.822;9.402;2023-06-14T09:42:16;5.25;;;3.25;;
15958;SDS011;8078;47.822;9.402;2023-06-14T09:44:46;4.25;;;3.53;;
15958;SDS011;8078;47.822;9.402;2023-06-14T09:47:14;3.60;;;3.10;;
15958;SDS011;8078;47.822;9.402;2023-06-14T09:49:40;4.13;;;2.97;;
15958;SDS011;8078;47.822;9.402;2023-06-14T09:52:06;5.47;;;3.53;;
15958;SDS011;8078;47.822;9.402;2023-06-14T09:54:37;4.80;;;3.88;;
15958;SDS011;8078;47.822;9.402;2023-06-14T09:57:11;6.28;;;4.00;;
15958;SDS011;8078;47.822;9.402;2023-06-14T09:59:39;4.50;;;3.35;;
15958;SDS011;8078;47.822;9.402;2023-06-14T10:02:18;4.90;;;3.40;;
15958;SDS011;8078;47.822;9.402;2023-06-14T10:04:58;3.35;;;3.03;;
15958;SDS011;8078;47.822;9.402;2023-06-14T10:07:30;5.63;;;3.60;;
15958;SDS011;8078;47.822;9.402;2023-06-14T10:10:04;5.50;;;3.58;;
15958;SDS011;8078;47.822;9.402;2023-06-14T10:12:31;5.68;;;3.50;;
15958;SDS011;8078;47.822;9.402;2023-06-14T10:14:56;5.10;;;3.35;;
15958;SDS011;8078;47.822;9.402;2023-06-14T10:17:27;4.25;;;3.50;;
15958;SDS011;8078;47.822;9.402;2023-06-14T10:20:41;3.92;;;3.22;;
15958;SDS011;8078;47.822;9.402;2023-06-14T10:23:22;5.13;;;3.75;;
15958;SDS011;8078;47.822;9.402;2023-06-14T10:25:49;6.13;;;3.40;;
15958;SDS011;8078;47.822;9.402;2023-06-14T10:28:19;3.50;;;3.20;;
15958;SDS011;8078;47.822;9.402;2023-06-14T10:31:09;6.97;;;3.67;;
15958;SDS011;8078;47.822;9.402;2023-06-14T10:33:36;6.32;;;3.53;;
15958;SDS011;8078;47.822;9.402;2023-06-14T10:38:56;7.72;;;3.70;;
15958;SDS011;8078;47.822;9.402;2023-06-14T10:41:41;6.57;;;3.30;;
15958;SDS011;8078;47.822;9.402;2023-06-14T10:50:04;5.28;;;3.50;;
15958;SDS011;8078;47.822;9.402;2023-06-14T10:52:33;4.85;;;3.33;;
15958;SDS011;8078;47.822;9.402;2023-06-14T10:55:04;5.53;;;3.80;;
15958;SDS011;8078;47.822;9.402;2023-06-14T10:57:38;6.22;;;3.53;;
15958;SDS011;8078;47.822;9.402;2023-06-14T11:00:05;8.80;;;3.53;;
15958;SDS011;8078;47.822;9.402;2023-06-14T11:05:58;6.22;;;3.85;;
15958;SDS011;8078;47.822;9.402;2023-06-14T11:10:49;6.80;;;3.58;;
15958;SDS011;8078;47.822;9.402;2023-06-14T11:13:16;9.43;;;4.00;;
15958;SDS011;8078;47.822;9.402;2023-06-14T11:15:46;7.22;;;3.85;;
15958;SDS011;8078;47.822;9.402;2023-06-14T11:18:12;6.05;;;3.72;;
15958;SDS011;8078;47.822;9.402;2023-06-14T11:20:39;4.07;;;3.67;;
15958;SDS011;8078;47.822;9.402;2023-06-14T11:23:05;9.40;;;4.13;;
15958;SDS011;8078;47.822;9.402;2023-06-14T11:25:31;4.75;;;3.45;;
15958;SDS011;8078;47.822;9.402;2023-06-14T11:27:57;5.13;;;4.00;;
15958;SDS011;8078;47.822;9.402;2023-06-14T11:30:24;6.88;;;3.80;;
15958;SDS011;8078;47.822;9.402;2023-06-14T11:32:51;6.85;;;3.30;;
15958;SDS011;8078;47.822;9.402;2023-06-14T11:35:18;12.65;;;3.72;;
15958;SDS011;8078;47.822;9.402;2023-06-14T11:37:46;8.07;;;4.00;;
15958;SDS011;8078;47.822;9.402;2023-06-14T11:40:14;7.00;;;3.55;;
15958;SDS011;8078;47.822;9.402;2023-06-14T11:42:40;6.78;;;3.50;;
15958;SDS011;8078;47.822;9.402;2023-06-14T11:45:10;6.43;;;3.33;;
15958;SDS011;8078;47.822;9.402;2023-06-14T11:47:37;4.60;;;3.33;;
15958;SDS011;8078;47.822;9.402;2023-06-14T11:50:05;6.22;;;3.45;;
15958;SDS011;8078;47.822;9.402;2023-06-14T11:52:32;5.13;;;2.95;;
15958;SDS011;8078;47.822;9.402;2023-06-14T11:54:57;5.13;;;3.33;;
15958;SDS011;8078;47.822;9.402;2023-06-14T11:57:23;4.82;;;3.38;;
15958;SDS011;8078;47.822;9.402;2023-06-14T11:59:50;4.47;;;3.33;;
15958;SDS011;8078;47.822;9.402;2023-06-14T12:02:16;5.05;;;3.38;;
15958;SDS011;8078;47.822;9.402;2023-06-14T12:04:43;7.57;;;3.70;;
15958;SDS011;8078;47.822;9.402;2023-06-14T12:07:12;10.45;;;3.35;;
15958;SDS011;8078;47.822;9.402;2023-06-14T12:10:04;4.18;;;3.33;;
15958;SDS011;8078;47.822;9.402;2023-06-14T12:12:34;10.43;;;2.95;;
15958;SDS011;8078;47.822;9.402;2023-06-14T12:15:02;4.68;;;3.45;;
15958;SDS011;8078;47.822;9.402;2023-06-14T12:17:33;10.02;;;3.60;;
15958;SDS011;8078;47.822;9.402;2023-06-14T12:20:05;4.38;;;3.97;;
15958;SDS011;8078;47.822;9.402;2023-06-14T12:22:54;5.47;;;3.60;;
15958;SDS011;8078;47.822;9.402;2023-06-14T12:25:31;7.30;;;3.70;;
15958;SDS011;8078;47.822;9.402;2023-06-14T12:27:58;4.95;;;3.35;;
15958;SDS011;8078;47.822;9.402;2023-06-14T12:30:24;5.82;;;3.33;;
15958;SDS011;8078;47.822;9.402;2023-06-14T12:32:50;7.35;;;3.50;;
15958;SDS011;8078;47.822;9.402;2023-06-14T12:35:18;5.53;;;3.13;;
15958;SDS011;8078;47.822;9.402;2023-06-14T12:37:45;6.82;;;3.22;;
15958;SDS011;8078;47.822;9.402;2023-06-14T12:40:11;4.45;;;3.53;;
15958;SDS011;8078;47.822;9.402;2023-06-14T12:42:37;5.82;;;3.42;;
15958;SDS011;8078;47.822;9.402;2023-06-14T12:45:03;25.35;;;4.10;;
15958;SDS011;8078;47.822;9.402;2023-06-14T12:47:28;22.45;;;4.13;;
15958;SDS011;8078;47.822;9.402;2023-06-14T12:49:54;5.35;;;3.40;;
15958;SDS011;8078;47.822;9.402;2023-06-14T12:52:20;12.43;;;3.65;;
15958;SDS011;8078;47.822;9.402;2023-06-14T12:54:45;5.75;;;3.53;;
15958;SDS011;8078;47.822;9.402;2023-06-14T12:57:11;8.05;;;3.40;;
15958;SDS011;8078;47.822;9.402;2023-06-14T12:59:36;4.95;;;3.75;;
15958;SDS011;8078;47.822;9.402;2023-06-14T13:02:15;13.05;;;3.40;;
15958;SDS011;8078;47.822;9.402;2023-06-14T13:04:42;6.43;;;3.10;;
15958;SDS011;8078;47.822;9.402;2023-06-14T13:07:08;4.95;;;3.47;;
15958;SDS011;8078;47.822;9.402;2023-06-14T13:09:35;4.00;;;3.13;;
15958;SDS011;8078;47.822;9.402;2023-06-14T13:12:01;3.90;;;3.03;;
15958;SDS011;8078;47.822;9.402;2023-06-14T13:14:27;9.32;;;3.90;;
15958;SDS011;8078;47.822;9.402;2023-06-14T13:16:53;5.93;;;3.42;;
15958;SDS011;8078;47.822;9.402;2023-06-14T13:19:18;6.35;;;3.58;;
15958;SDS011;8078;47.822;9.402;2023-06-14T13:21:44;17.30;;;3.88;;
15958;SDS011;8078;47.822;9.402;2023-06-14T13:24:10;5.30;;;2.97;;
15958;SDS011;8078;47.822;9.402;2023-06-14T13:26:35;4.10;;;3.30;;
15958;SDS011;8078;47.822;9.402;2023-06-14T13:29:01;6.40;;;3.45;;
15958;SDS011;8078;47.822;9.402;2023-06-14T13:31:27;6.75;;;3.35;;
15958;SDS011;8078;47.822;9.402;2023-06-14T13:33:52;3.55;;;3.08;;
15958;SDS011;8078;47.822;9.402;2023-06-14T13:36:18;4.13;;;2.72;;
15958;SDS011;8078;47.822;9.402;2023-06-14T13:38:43;10.15;;;3.42;;
15958;SDS011;8078;47.822;9.402;2023-06-14T13:41:09;4.78;;;3.42;;
15958;SDS011;8078;47.822;9.402;2023-06-14T13:43:34;3.97;;;3.03;;
15958;SDS011;8078;47.822;9.402;2023-06-14T13:46:00;9.27;;;3.20;;
15958;SDS011;8078;47.822;9.402;2023-06-14T13:48:26;9.60;;;3.60;;
15958;SDS011;8078;47.822;9.402;2023-06-14T13:50:51;17.15;;;3.70;;
15958;SDS011;8078;47.822;9.402;2023-06-14T13:53:17;6.40;;;3.63;;
15958;SDS011;8078;47.822;9.402;2023-06-14T13:55:43;11.98;;;3.20;;
15958;SDS011;8078;47.822;9.402;2023-06-14T13:58:08;5.70;;;3.47;;
15958;SDS011;8078;47.822;9.402;2023-06-14T14:00:34;6.35;;;3.38;;
15958;SDS011;8078;47.822;9.402;2023-06-14T14:03:02;12.00;;;4.45;;
15958;SDS011;8078;47.822;9.402;2023-06-14T14:05:28;5.30;;;3.15;;
15958;SDS011;8078;47.822;9.402;2023-06-14T14:07:55;3.20;;;2.90;;
15958;SDS011;8078;47.822;9.402;2023-06-14T14:10:22;5.53;;;3.08;;
15958;SDS011;8078;47.822;9.402;2023-06-14T14:12:48;5.40;;;3.00;;
15958;SDS011;8078;47.822;9.402;2023-06-14T14:15:14;5.25;;;2.80;;
15958;SDS011;8078;47.822;9.402;2023-06-14T14:17:40;7.05;;;3.25;;
15958;SDS011;8078;47.822;9.402;2023-06-14T14:20:06;5.45;;;3.08;;
15958;SDS011;8078;47.822;9.402;2023-06-14T14:22:32;9.10;;;3.47;;
15958;SDS011;8078;47.822;9.402;2023-06-14T14:24:57;19.08;;;3.95;;
15958;SDS011;8078;47.822;9.402;2023-06-14T14:27:23;6.75;;;3.20;;
15958;SDS011;8078;47.822;9.402;2023-06-14T14:29:49;5.85;;;3.33;;
15958;SDS011;8078;47.822;9.402;2023-06-14T14:32:15;3.67;;;2.95;;
15958;SDS011;8078;47.822;9.402;2023-06-14T14:34:41;24.90;;;4.00;;
15958;SDS011;8078;47.822;9.402;2023-06-14T14:37:07;7.78;;;3.17;;
15958;SDS011;8078;47.822;9.402;2023-06-14T14:39:33;4.63;;;3.08;;
15958;SDS011;8078;47.822;9.402;2023-06-14T14:41:59;4.70;;;3.30;;
15958;SDS011;8078;47.822;9.402;2023-06-14T14:44:25;18.05;;;4.20;;
15958;SDS011;8078;47.822;9.402;2023-06-14T14:46:51;16.52;;;3.60;;
15958;SDS011;8078;47.822;9.402;2023-06-14T14:49:17;6.90;;;3.53;;
15958;SDS011;8078;47.822;9.402;2023-06-14T14:51:43;20.80;;;4.28;;
15958;SDS011;8078;47.822;9.402;2023-06-14T14:54:09;5.82;;;3.25;;
15958;SDS011;8078;47.822;9.402;2023-06-14T14:56:35;7.38;;;3.45;;
15958;SDS011;8078;47.822;9.402;2023-06-14T14:59:02;8.65;;;3.35;;
15958;SDS011;8078;47.822;9.402;2023-06-14T15:01:28;5.03;;;3.40;;
15958;SDS011;8078;47.822;9.402;2023-06-14T15:03:54;4.88;;;3.63;;
15958;SDS011;8078;47.822;9.402;2023-06-14T15:06:19;5.88;;;3.40;;
15958;SDS011;8078;47.822;9.402;2023-06-14T15:08:45;5.97;;;4.22;;
15958;SDS011;8078;47.822;9.402;2023-06-14T15:11:11;3.42;;;2.88;;
15958;SDS011;8078;47.822;9.402;2023-06-14T15:13:36;7.07;;;3.42;;
15958;SDS011;8078;47.822;9.402;2023-06-14T15:16:02;3.60;;;2.97;;
15958;SDS011;8078;47.822;9.402;2023-06-14T15:18:27;7.25;;;3.60;;
15958;SDS011;8078;47.822;9.402;2023-06-14T15:20:53;3.53;;;3.22;;